Time;durP1;ratioP1;P1;durP2;ratioP2;P2;SDS_P1;SDS_P2;PMS_P1;PMS_P2;Temp;Humidity;BMP_temperature;BMP_pressure;BME280_temperature;BME280_humidity;BME280_pressure;Samples;Min_cycle;Max_cycle;Signal;HPM_P1;HPM_P2
2023/08/26 00:00:04;;;;;;;8.40;4.53;;;;;;;25.19;100.00;100664.09;5116048;27;20572;-75
2023/08/26 00:02:29;;;;;;;7.60;4.72;;;;;;;24.55;100.00;100677.69;5116042;27;20039;-75
2023/08/26 00:04:55;;;;;;;6.82;4.60;;;;;;;24.34;100.00;100632.50;5115493;27;20027;-73
2023/08/26 00:07:20;;;;;;;7.95;4.72;;;;;;;24.61;100.00;100666.81;5133707;27;20027;-76
2023/08/26 00:09:46;;;;;;;7.35;4.50;;;;;;;24.51;100.00;100604.28;5115689;27;20475;-77
2023/08/26 00:12:11;;;;;;;5.22;4.53;;;;;;;24.47;100.00;100592.44;5133477;27;20038;-75
2023/08/26 00:14:36;;;;;;;7.90;4.38;;;;;;;24.46;100.00;100611.63;5133384;27;20061;-77
2023/08/26 00:17:04;;;;;;;7.05;4.40;;;;;;;24.75;100.00;100664.88;5133563;27;20037;-75
2023/08/26 00:19:31;;;;;;;7.55;4.05;;;;;;;24.63;100.00;100621.56;5115314;27;20459;-75
2023/08/26 00:21:56;;;;;;;6.30;4.50;;;;;;;24.13;100.00;100595.09;5133523;27;20068;-75
2023/08/26 00:24:22;;;;;;;6.15;4.40;;;;;;;24.43;100.00;100656.03;5136379;27;20030;-76
2023/08/26 00:26:47;;;;;;;7.13;4.53;;;;;;;24.71;100.00;100647.81;5120545;27;20110;-76
2023/08/26 00:29:13;;;;;;;10.07;4.70;;;;;;;24.16;100.00;100550.66;5134096;27;20032;-77
2023/08/26 00:31:38;;;;;;;5.95;4.15;;;;;;;24.59;100.00;100653.94;5115033;27;20052;-76
2023/08/26 00:34:04;;;;;;;7.07;4.40;;;;;;;24.33;100.00;100664.63;5133663;27;20030;-76
2023/08/26 00:36:33;;;;;;;7.40;4.60;;;;;;;23.73;100.00;100540.00;5133502;27;20035;-77
2023/08/26 00:38:58;;;;;;;8.88;4.90;;;;;;;23.90;100.00;100594.97;5115339;27;20019;-75
2023/08/26 00:41:24;;;;;;;9.00;4.90;;;;;;;24.28;100.00;100653.75;5132925;27;20038;-77
2023/08/26 00:43:49;;;;;;;8.93;4.72;;;;;;;24.06;100.00;100592.94;5132110;27;20027;-77
2023/08/26 00:46:15;;;;;;;8.23;5.10;;;;;;;23.86;100.00;100539.00;5133601;27;20019;-76
2023/08/26 00:48:41;;;;;;;9.13;5.40;;;;;;;24.06;100.00;100571.31;5114325;27;20437;-76
2023/08/26 00:51:06;;;;;;;7.00;4.65;;;;;;;24.29;100.00;100622.44;5115006;27;20106;-76
2023/08/26 00:53:33;;;;;;;7.07;4.90;;;;;;;24.44;100.00;100641.25;5133038;27;20486;-76
2023/08/26 00:55:59;;;;;;;8.15;5.00;;;;;;;24.14;100.00;100591.53;5132710;27;20019;-72
2023/08/26 00:58:25;;;;;;;9.07;4.75;;;;;;;24.51;100.00;100645.03;5115201;27;20026;-76
2023/08/26 01:00:52;;;;;;;8.70;4.60;;;;;;;24.37;100.00;100637.44;5133096;27;20056;-75
2023/08/26 01:03:18;;;;;;;6.80;5.05;;;;;;;24.38;100.00;100633.91;5114862;27;20087;-75
2023/08/26 01:05:43;;;;;;;9.95;5.20;;;;;;;24.43;100.00;100630.03;5133134;27;20478;-77
2023/08/26 01:08:10;;;;;;;8.85;4.97;;;;;;;23.90;100.00;100581.16;5114792;28;20035;-77
2023/08/26 01:10:58;;;;;;;7.25;4.95;;;;;;;24.29;100.00;100635.41;5132888;27;20066;-77
2023/08/26 01:13:35;;;;;;;11.02;5.20;;;;;;;24.08;100.00;100637.84;5132901;27;20413;-79
2023/08/26 01:16:02;;;;;;;8.90;5.00;;;;;;;24.00;100.00;100571.75;5132490;27;20031;-77
2023/08/26 01:18:28;;;;;;;7.85;5.18;;;;;;;24.15;100.00;100619.19;5132893;27;20038;-76
2023/08/26 01:20:55;;;;;;;8.32;5.28;;;;;;;24.02;100.00;100554.28;5132422;27;20027;-77
2023/08/26 01:23:36;;;;;;;7.63;4.90;;;;;;;23.98;100.00;100547.66;5133104;28;20040;-78
2023/08/26 01:26:01;;;;;;;8.73;5.13;;;;;;;24.46;100.00;100576.97;5132820;28;20023;-77
2023/08/26 01:28:27;;;;;;;6.65;5.22;;;;;;;23.80;100.00;100560.22;5114346;28;20167;-77
2023/08/26 01:30:55;;;;;;;8.02;5.35;;;;;;;24.47;100.00;100597.66;5132790;28;20409;-79
2023/08/26 01:33:24;;;;;;;8.18;5.10;;;;;;;23.85;100.00;100567.66;5114530;28;20031;-77
2023/08/26 01:35:56;;;;;;;9.80;5.15;;;;;;;24.46;100.00;100592.56;5132569;27;20031;-77
2023/08/26 01:38:23;;;;;;;8.73;5.00;;;;;;;24.51;100.00;100606.03;5132947;28;20031;-77
2023/08/26 01:40:53;;;;;;;9.43;5.30;;;;;;;23.79;100.00;100565.53;5114219;28;20063;-78
2023/08/26 01:43:20;;;;;;;9.95;5.18;;;;;;;24.01;100.00;100557.81;5132909;28;20500;-77
2023/08/26 01:45:46;;;;;;;9.60;5.18;;;;;;;24.07;100.00;100553.00;5132882;28;20515;-77
2023/08/26 01:48:11;;;;;;;8.88;5.10;;;;;;;24.41;100.00;100608.50;5132081;28;20043;-76
2023/08/26 01:50:36;;;;;;;7.18;5.00;;;;;;;24.11;100.00;100617.78;5114430;28;20125;-77
2023/08/26 01:53:02;;;;;;;5.70;5.10;;;;;;;24.07;100.00;100546.97;5132754;28;20033;-76
2023/08/26 01:55:27;;;;;;;7.68;5.18;;;;;;;24.07;100.00;100601.56;5135742;27;20031;-77
2023/08/26 01:57:53;;;;;;;8.65;5.30;;;;;;;23.64;100.00;100559.69;5136257;27;20039;-76
2023/08/26 02:00:18;;;;;;;8.60;5.40;;;;;;;23.87;100.00;100600.38;5136416;27;20055;-78
2023/08/26 02:02:44;;;;;;;5.97;5.32;;;;;;;23.62;100.00;100550.34;5136141;27;20030;-77
2023/08/26 02:05:09;;;;;;;9.55;5.68;;;;;;;23.71;100.00;100592.06;5135902;27;20027;-77
2023/08/26 02:07:34;;;;;;;6.15;5.55;;;;;;;24.04;100.00;100547.22;5136598;27;20106;-77
2023/08/26 02:10:00;;;;;;;7.18;5.22;;;;;;;23.84;100.00;100564.25;5136498;27;20031;-76
2023/08/26 02:12:25;;;;;;;6.32;5.18;;;;;;;23.78;100.00;100507.56;5117943;27;20070;-78
2023/08/26 02:14:51;;;;;;;5.88;5.20;;;;;;;23.98;100.00;100552.84;5136242;27;20469;-77
2023/08/26 02:17:16;;;;;;;9.32;5.82;;;;;;;23.53;100.00;100504.28;5135663;27;20038;-78
2023/08/26 02:19:41;;;;;;;8.40;5.20;;;;;;;23.91;100.00;100557.66;5117223;27;20031;-75
2023/08/26 02:22:08;;;;;;;9.00;5.32;;;;;;;23.92;100.00;100559.31;5135641;27;20035;-75
2023/08/26 02:24:33;;;;;;;9.40;5.55;;;;;;;23.51;100.00;100529.53;5117813;27;20042;-76
2023/08/26 02:27:00;;;;;;;7.90;5.40;;;;;;;23.35;100.00;100529.81;5136089;27;20053;-77
2023/08/26 02:29:25;;;;;;;7.65;4.90;;;;;;;23.90;100.00;100530.03;5117947;27;20122;-78
2023/08/26 02:31:51;;;;;;;9.40;5.22;;;;;;;23.96;100.00;100573.75;5135633;27;20123;-74
2023/08/26 02:34:16;;;;;;;6.07;5.22;;;;;;;23.95;100.00;100579.88;5135746;27;20075;-74
2023/08/26 02:36:42;;;;;;;6.43;5.53;;;;;;;23.94;100.00;100582.59;5135214;27;20039;-75
2023/08/26 02:39:07;;;;;;;6.22;5.40;;;;;;;23.73;100.00;100530.44;5134901;27;20034;-72
2023/08/26 02:41:32;;;;;;;8.77;5.55;;;;;;;23.67;100.00;100575.03;5134708;27;20050;-74
2023/08/26 02:43:58;;;;;;;9.60;6.00;;;;;;;23.81;100.00;100593.03;5135425;27;20033;-76
2023/08/26 02:46:23;;;;;;;8.52;6.13;;;;;;;23.44;100.00;100539.53;5116722;27;20119;-75
2023/08/26 02:48:50;;;;;;;8.68;6.35;;;;;;;22.87;100.00;100546.22;5134957;27;20560;-75
2023/08/26 02:51:15;;;;;;;7.70;6.28;;;;;;;22.93;100.00;100538.00;5117241;27;20092;-76
2023/08/26 02:53:41;;;;;;;7.18;6.47;;;;;;;22.70;100.00;100503.28;5117193;27;20047;-75
2023/08/26 02:56:06;;;;;;;8.40;6.32;;;;;;;23.08;100.00;100529.13;5135547;27;20489;-76
2023/08/26 02:58:32;;;;;;;7.30;6.60;;;;;;;22.87;100.00;100538.44;5116595;27;20041;-75
2023/08/26 03:01:01;;;;;;;8.40;6.22;;;;;;;23.00;100.00;100547.00;5134674;27;20418;-75
2023/08/26 03:03:26;;;;;;;9.63;6.97;;;;;;;23.01;100.00;100580.63;5134175;27;20501;-74
2023/08/26 03:05:56;;;;;;;8.15;7.07;;;;;;;22.92;100.00;100585.63;5133781;27;20035;-75
2023/08/26 03:08:22;;;;;;;8.95;6.90;;;;;;;23.12;100.00;100572.94;5134646;27;20080;-73
2023/08/26 03:11:07;;;;;;;10.45;6.93;;;;;;;23.47;100.00;100583.44;5134066;27;20039;-73
2023/08/26 03:13:33;;;;;;;8.90;7.10;;;;;;;23.01;100.00;100585.00;5134707;27;20023;-75
2023/08/26 03:16:07;;;;;;;11.23;7.18;;;;;;;23.08;100.00;100560.25;5134897;27;20117;-74
2023/08/26 03:18:33;;;;;;;7.43;6.40;;;;;;;22.88;100.00;100532.28;5116486;27;20126;-74
2023/08/26 03:21:05;;;;;;;9.75;7.10;;;;;;;23.17;100.00;100583.00;5116282;27;20122;-76
2023/08/26 03:23:31;;;;;;;9.40;7.13;;;;;;;22.89;100.00;100591.03;5134148;27;20023;-75
2023/08/26 03:25:57;;;;;;;9.82;6.75;;;;;;;22.79;100.00;100601.22;5133339;27;20070;-72
2023/08/26 03:28:22;;;;;;;9.55;6.80;;;;;;;22.96;100.00;100597.44;5133663;27;20039;-74
2023/08/26 03:30:47;;;;;;;12.25;7.28;;;;;;;22.95;100.00;100536.13;5133767;27;20509;-75
2023/08/26 03:33:13;;;;;;;16.60;7.10;;;;;;;23.06;100.00;100595.88;5133738;27;20058;-73
2023/08/26 03:35:39;;;;;;;8.15;7.30;;;;;;;23.09;100.00;100604.28;5134341;27;20027;-75
2023/08/26 03:38:05;;;;;;;10.60;7.00;;;;;;;22.92;100.00;100598.59;5134732;27;20110;-76
2023/08/26 03:40:30;;;;;;;11.32;7.70;;;;;;;22.62;100.00;100543.66;5134108;27;20106;-74
2023/08/26 03:42:56;;;;;;;8.88;7.55;;;;;;;22.72;100.00;100536.91;5115511;27;20059;-75
2023/08/26 03:45:21;;;;;;;9.45;7.15;;;;;;;23.03;100.00;100603.88;5115902;27;20027;-75
2023/08/26 03:47:47;;;;;;;10.70;7.50;;;;;;;22.39;100.00;100524.44;5134140;27;20058;-76
2023/08/26 03:50:12;;;;;;;8.82;6.85;;;;;;;22.33;100.00;100536.06;5134484;27;20091;-72
2023/08/26 03:52:38;;;;;;;11.32;7.60;;;;;;;22.60;100.00;100587.00;5134646;27;20015;-76
2023/08/26 03:55:04;;;;;;;9.93;6.72;;;;;;;22.82;100.00;100593.19;5133664;27;20023;-76
2023/08/26 03:57:29;;;;;;;11.00;6.75;;;;;;;22.37;100.00;100490.03;5134264;27;20084;-76
2023/08/26 03:59:55;;;;;;;10.05;7.00;;;;;;;22.73;100.00;100586.06;5134048;27;20078;-78
2023/08/26 04:02:20;;;;;;;10.70;6.90;;;;;;;22.51;100.00;100541.75;5133664;27;20512;-79
2023/08/26 04:04:46;;;;;;;11.13;7.03;;;;;;;23.02;100.00;100590.06;5134018;27;20023;-82
2023/08/26 04:07:11;;;;;;;7.82;7.03;;;;;;;23.13;100.00;100590.16;5115775;27;20027;-77
2023/08/26 04:09:37;;;;;;;8.85;6.78;;;;;;;23.10;100.00;100584.34;5115876;27;20027;-78
2023/08/26 04:12:02;;;;;;;11.30;6.72;;;;;;;23.10;100.00;100597.31;5133264;27;20043;-75
2023/08/26 04:14:28;;;;;;;9.25;7.00;;;;;;;22.56;100.00;100538.88;5133258;27;20181;-76
2023/08/26 04:16:54;;;;;;;9.77;6.43;;;;;;;22.53;100.00;100542.47;5115623;27;20034;-75
2023/08/26 04:19:19;;;;;;;14.05;6.85;;;;;;;22.81;100.00;100544.03;5133906;27;20082;-80
2023/08/26 04:21:44;;;;;;;11.73;7.10;;;;;;;22.56;100.00;100551.81;5134072;27;20545;-77
2023/08/26 04:24:10;;;;;;;10.32;7.50;;;;;;;22.63;100.00;100543.56;5133365;27;20059;-81
2023/08/26 04:26:35;;;;;;;9.90;7.20;;;;;;;22.68;100.00;100556.22;5115479;27;20034;-80
2023/08/26 04:29:01;;;;;;;10.07;7.63;;;;;;;22.71;100.00;100576.72;5133521;27;20027;-77
2023/08/26 04:31:26;;;;;;;13.07;8.68;;;;;;;22.77;100.00;100605.66;5133828;27;20029;-78
2023/08/26 04:33:52;;;;;;;9.27;7.40;;;;;;;22.25;100.00;100568.59;5133410;27;20053;-77
2023/08/26 04:36:18;;;;;;;11.18;7.88;;;;;;;22.86;100.00;100604.19;5133496;27;20053;-80
2023/08/26 04:38:45;;;;;;;9.93;7.57;;;;;;;22.79;100.00;100613.34;5115457;27;20453;-79
2023/08/26 04:41:10;;;;;;;10.98;7.68;;;;;;;22.96;100.00;100610.41;5133009;27;20023;-79
2023/08/26 04:43:36;;;;;;;13.55;7.78;;;;;;;22.32;100.00;100562.09;5133396;27;20023;-81
2023/08/26 04:46:01;;;;;;;11.65;7.53;;;;;;;22.43;100.00;100570.78;5133548;27;20405;-82
2023/08/26 04:48:30;;;;;;;10.88;7.40;;;;;;;23.26;100.00;100603.94;5133209;27;20050;-82
2023/08/26 04:50:55;;;;;;;11.32;6.90;;;;;;;23.25;100.00;100604.03;5133397;27;20051;-83
2023/08/26 04:53:21;;;;;;;11.90;7.18;;;;;;;22.90;100.00;100564.97;5133281;27;20043;-83
2023/08/26 04:55:51;;;;;;;10.95;7.30;;;;;;;22.96;100.00;100551.56;5132990;27;20023;-82
2023/08/26 04:58:17;;;;;;;12.60;7.50;;;;;;;23.65;100.00;100615.88;5115371;27;20023;-82
2023/08/26 05:00:43;;;;;;;13.73;7.65;;;;;;;23.23;100.00;100546.22;5133189;27;20117;-84
2023/08/26 05:03:08;;;;;;;7.85;7.00;;;;;;;23.75;100.00;100601.28;5133405;27;20070;-84
2023/08/26 05:05:33;;;;;;;9.27;7.00;;;;;;;23.58;100.00;100543.72;5114672;27;20048;-83
2023/08/26 05:07:59;;;;;;;10.05;6.70;;;;;;;24.17;100.00;100589.53;5115179;27;20023;-81
2023/08/26 05:10:25;;;;;;;12.68;8.48;;;;;;;24.31;100.00;100546.91;5133395;27;20030;-83
2023/08/26 05:12:50;;;;;;;7.65;6.22;;;;;;;24.75;100.00;100596.41;5133302;27;20482;-82
2023/08/26 05:15:16;;;;;;;10.80;6.95;;;;;;;24.73;100.00;100604.34;5114828;28;20190;-80
2023/08/26 05:17:41;;;;;;;13.55;7.43;;;;;;;24.78;100.00;100546.75;5115136;28;20034;-82
2023/08/26 05:20:07;;;;;;;11.48;7.45;;;;;;;25.16;100.00;100594.03;5132918;27;20031;-81
2023/08/26 05:22:32;;;;;;;13.00;7.45;;;;;;;25.31;100.00;100569.41;5114864;28;20027;-84
2023/08/26 05:24:58;;;;;;;12.15;7.07;;;;;;;25.37;100.00;100583.69;5121399;28;20024;-79
2023/08/26 05:27:23;;;;;;;13.63;6.80;;;;;;;25.54;100.00;100597.06;5109151;28;20478;-75
2023/08/26 05:29:49;;;;;;;12.40;7.07;;;;;;;25.33;100.00;100554.47;5129488;27;20057;-75
2023/08/26 05:32:15;;;;;;;11.05;6.82;;;;;;;25.79;100.00;100588.91;5119012;27;20027;-79
2023/08/26 05:34:40;;;;;;;12.65;6.90;;;;;;;25.62;100.00;100557.34;5118919;27;20034;-78
2023/08/26 05:37:05;;;;;;;9.55;6.38;;;;;;;26.04;100.00;100592.13;5118983;27;20515;-80
2023/08/26 05:39:31;;;;;;;11.05;6.47;;;;;;;25.84;100.00;100540.78;5126650;27;20080;-83
2023/08/26 05:41:56;;;;;;;13.23;7.15;;;;;;;25.68;100.00;100598.56;5116412;28;20035;-74
2023/08/26 05:44:22;;;;;;;11.43;6.63;;;;;;;26.07;100.00;100589.31;5116272;28;20084;-79
2023/08/26 05:46:47;;;;;;;8.93;5.90;;;;;;;26.17;100.00;100559.72;5114929;28;20038;-78
2023/08/26 05:49:12;;;;;;;9.35;6.57;;;;;;;26.55;100.00;100606.06;5123268;27;20418;-81
2023/08/26 05:51:38;;;;;;;6.40;5.80;;;;;;;26.46;100.00;100559.91;5118145;27;20434;-76
2023/08/26 05:54:03;;;;;;;6.85;6.15;;;;;;;26.62;100.00;100602.81;5125840;27;20024;-79
2023/08/26 05:56:29;;;;;;;13.57;6.55;;;;;;;27.31;100.00;100589.91;5115748;28;20023;-75
2023/08/26 05:58:54;;;;;;;8.07;6.35;;;;;;;27.16;100.00;100542.44;5115049;28;20032;-79
2023/08/26 06:01:20;;;;;;;8.57;5.72;;;;;;;27.24;100.00;100552.22;5116039;28;20473;-80
2023/08/26 06:03:45;;;;;;;11.38;6.20;;;;;;;27.39;100.00;100543.06;5115444;28;20524;-74
2023/08/26 06:06:11;;;;;;;9.55;6.38;;;;;;;28.09;100.00;100576.78;5097491;28;20068;-77
2023/08/26 06:08:36;;;;;;;7.57;6.15;;;;;;;27.72;100.00;100526.13;5115653;28;20501;-76
2023/08/26 06:11:02;;;;;;;9.65;6.80;;;;;;;28.00;100.00;100525.31;5115147;28;20036;-76
2023/08/26 06:13:27;;;;;;;7.25;5.38;;;;;;;28.22;100.00;100504.91;5114366;28;20032;-81
2023/08/26 06:15:56;;;;;;;6.78;5.03;;;;;;;28.58;100.00;100568.72;5116108;28;20073;-80
2023/08/26 06:18:23;;;;;;;7.82;5.10;;;;;;;28.62;100.00;100569.25;5115739;28;20028;-77
2023/08/26 06:20:52;;;;;;;7.00;4.90;;;;;;;28.52;100.00;100558.78;5097284;28;20027;-77
2023/08/26 06:23:18;;;;;;;5.88;5.25;;;;;;;28.08;100.00;100520.22;5125425;27;20031;-75
2023/08/26 06:25:57;;;;;;;7.95;5.60;;;;;;;27.94;100.00;100546.75;5135881;27;20107;-74
2023/08/26 06:28:23;;;;;;;6.55;5.43;;;;;;;28.67;100.00;100551.28;5135727;27;20178;-74
2023/08/26 06:30:49;;;;;;;6.75;5.15;;;;;;;28.32;100.00;100554.56;5135016;27;20106;-75
2023/08/26 06:33:15;;;;;;;7.18;5.07;;;;;;;29.01;100.00;100582.03;5135185;27;20556;-75
2023/08/26 06:35:46;;;;;;;8.23;5.00;;;;;;;28.98;100.00;100574.44;5135563;27;20031;-76
2023/08/26 06:38:11;;;;;;;6.57;5.18;;;;;;;29.31;100.00;100509.31;5136078;27;20025;-76
2023/08/26 06:40:37;;;;;;;9.18;5.22;;;;;;;29.11;100.00;100569.69;5134517;27;20378;-76
2023/08/26 06:43:03;;;;;;;8.20;5.70;;;;;;;29.55;100.00;100560.19;5133337;27;20045;-75
2023/08/26 06:45:29;;;;;;;7.93;5.50;;;;;;;29.57;100.00;100566.09;5134069;27;20026;-76
2023/08/26 06:47:54;;;;;;;6.47;5.68;;;;;;;29.49;100.00;100513.59;5133214;27;20113;-75
2023/08/26 06:50:20;;;;;;;8.07;6.00;;;;;;;29.26;100.00;100514.19;5113897;28;20131;-72
2023/08/26 06:52:46;;;;;;;10.88;6.40;;;;;;;29.64;100.00;100534.84;5121989;27;20417;-73
2023/08/26 06:55:11;;;;;;;9.25;6.53;;;;;;;30.19;100.00;100541.50;5134834;27;20026;-75
2023/08/26 06:57:36;;;;;;;6.57;5.40;;;;;;;29.57;100.00;100526.78;5134040;27;20096;-75
2023/08/26 07:00:05;;;;;;;9.48;5.95;;;;;;;29.69;100.00;100524.75;5115978;27;20054;-74
2023/08/26 07:02:31;;;;;;;7.35;5.28;;;;;;;30.55;100.00;100508.94;5116370;27;20472;-74
2023/08/26 07:04:56;;;;;;;9.13;5.60;;;;;;;30.55;100.00;100498.44;5134249;27;20106;-74
2023/08/26 07:07:22;;;;;;;8.48;5.97;;;;;;;30.19;100.00;100498.72;5116169;27;20064;-74
2023/08/26 07:09:48;;;;;;;11.90;5.90;;;;;;;30.54;100.00;100517.81;5135293;27;20042;-75
2023/08/26 07:12:14;;;;;;;8.70;4.93;;;;;;;30.10;100.00;100523.25;5138687;27;20023;-80
2023/08/26 07:14:40;;;;;;;8.48;5.55;;;;;;;30.20;100.00;100446.06;5135705;27;20069;-78
2023/08/26 07:17:05;;;;;;;8.60;5.10;;;;;;;30.19;100.00;100480.34;5116332;27;20031;-80
2023/08/26 07:19:31;;;;;;;6.68;4.78;;;;;;;30.72;100.00;100505.38;5133768;27;20110;-75
2023/08/26 07:21:56;;;;;;;7.80;4.80;;;;;;;30.76;100.00;100508.53;5134676;27;20035;-75
2023/08/26 07:24:21;;;;;;;6.78;4.80;;;;;;;31.15;100.00;100503.56;5134697;27;20019;-76
2023/08/26 07:26:47;;;;;;;8.32;4.78;;;;;;;31.66;100.00;100492.75;5134663;27;20028;-76
2023/08/26 07:29:12;;;;;;;7.13;5.03;;;;;;;31.38;100.00;100492.28;5133799;27;20038;-76
2023/08/26 07:31:38;;;;;;;11.20;4.68;;;;;;;31.28;100.00;100446.03;5133243;27;20030;-77
2023/08/26 07:34:03;;;;;;;6.07;5.10;;;;;;;31.28;100.00;100488.13;5134794;27;20031;-78
2023/08/26 07:36:28;;;;;;;9.13;4.85;;;;;;;31.10;100.00;100430.44;5116177;27;20112;-78
2023/08/26 07:38:54;;;;;;;6.07;4.35;;;;;;;30.88;100.00;100438.16;5133842;27;20505;-77
2023/08/26 07:41:20;;;;;;;7.78;4.60;;;;;;;31.69;100.00;100475.81;5134254;27;21017;-78
2023/08/26 07:43:45;;;;;;;7.88;4.38;;;;;;;31.37;100.00;100487.97;5119869;27;20020;-77
2023/08/26 07:46:10;;;;;;;12.82;4.88;;;;;;;32.00;100.00;100461.00;5094932;28;20030;-78
2023/08/26 07:48:36;;;;;;;5.43;4.82;;;;;;;31.92;100.00;100443.41;5112516;28;20019;-75
2023/08/26 07:51:01;;;;;;;5.78;4.47;;;;;;;31.87;100.00;100450.94;5095373;28;20038;-76
2023/08/26 07:53:27;;;;;;;9.77;4.60;;;;;;;31.52;100.00;100461.84;5113206;28;20024;-77
2023/08/26 07:55:52;;;;;;;6.97;4.20;;;;;;;31.98;100.00;100465.59;5113913;28;20104;-75
2023/08/26 07:58:18;;;;;;;7.15;4.10;;;;;;;32.34;100.00;100395.72;5113692;28;20024;-78
2023/08/26 08:00:43;;;;;;;6.85;4.30;;;;;;;31.70;100.00;100425.66;5112455;28;20066;-77
2023/08/26 08:03:08;;;;;;;7.95;4.30;;;;;;;32.66;100.00;100463.25;5112470;28;20034;-77
2023/08/26 08:05:34;;;;;;;8.25;4.38;;;;;;;32.43;100.00;100431.53;5113519;28;20611;-77
2023/08/26 08:07:59;;;;;;;6.65;5.00;;;;;;;32.62;100.00;100410.09;5113806;28;20019;-76
2023/08/26 08:10:25;;;;;;;7.00;4.65;;;;;;;32.42;100.00;100422.00;5113031;28;20034;-75
2023/08/26 08:12:50;;;;;;;7.35;4.80;;;;;;;33.12;100.00;100401.69;5112714;28;20039;-74
2023/08/26 08:15:15;;;;;;;8.88;4.40;;;;;;;33.08;100.00;100408.31;5113463;28;20169;-75
2023/08/26 08:17:41;;;;;;;4.90;4.40;;;;;;;32.00;100.00;100438.13;5112913;28;20023;-76
2023/08/26 08:20:07;;;;;;;7.68;4.70;;;;;;;31.98;100.00;100448.00;5112657;28;20498;-75
2023/08/26 08:22:38;;;;;;;7.03;4.80;;;;;;;33.21;100.00;100424.34;5112320;28;20028;-72
2023/08/26 08:25:05;;;;;;;6.45;4.55;;;;;;;32.62;100.00;100423.25;5113185;28;20114;-78
2023/08/26 08:27:30;;;;;;;13.02;4.95;;;;;;;32.81;100.00;100420.16;5113214;28;20028;-77
2023/08/26 08:29:57;;;;;;;7.75;4.88;;;;;;;33.93;100.00;100418.38;5113228;28;20470;-76
2023/08/26 08:32:23;;;;;;;9.65;4.28;;;;;;;34.02;100.00;100458.75;5112762;28;20032;-74
2023/08/26 08:34:48;;;;;;;5.28;4.45;;;;;;;33.63;100.00;100442.28;5113210;28;20036;-76
2023/08/26 08:37:14;;;;;;;8.13;4.60;;;;;;;33.63;100.00;100471.31;5111936;28;20035;-80
2023/08/26 08:39:39;;;;;;;7.03;4.47;;;;;;;32.63;100.00;100485.47;5111960;28;20412;-79
2023/08/26 08:42:08;;;;;;;9.73;4.63;;;;;;;32.68;100.00;100446.28;5112555;28;20088;-75
2023/08/26 08:44:35;;;;;;;7.47;4.68;;;;;;;32.94;100.00;100430.94;5112815;28;20145;-80
2023/08/26 08:47:04;;;;;;;9.25;4.30;;;;;;;32.19;100.00;100458.78;5111736;28;20032;-72
2023/08/26 08:49:30;;;;;;;6.93;4.93;;;;;;;31.83;100.00;100469.91;5125495;27;20592;-73
2023/08/26 08:51:57;;;;;;;6.93;4.80;;;;;;;31.93;100.00;100529.25;5114842;27;20035;-75
2023/08/26 08:54:24;;;;;;;9.02;4.68;;;;;;;32.81;100.00;100496.59;5114039;27;20099;-74
2023/08/26 08:56:51;;;;;;;7.00;4.85;;;;;;;33.00;100.00;100432.09;5114058;27;20035;-74
2023/08/26 08:59:18;;;;;;;7.25;4.60;;;;;;;33.87;100.00;100450.78;5113899;27;20122;-75
2023/08/26 09:01:44;;;;;;;6.43;4.63;;;;;;;34.11;100.00;100382.88;5125840;27;20024;-75
2023/08/26 09:04:09;;;;;;;8.13;4.55;;;;;;;33.61;100.00;100381.78;5120684;27;20409;-77
2023/08/26 09:06:35;;;;;;;8.98;4.60;;;;;;;33.18;100.00;100407.03;5111904;28;20184;-74
2023/08/26 09:09:02;;;;;;;5.97;4.70;;;;;;;33.26;100.00;100488.75;5093805;28;20023;-75
2023/08/26 09:11:27;;;;;;;7.53;4.50;;;;;;;33.47;100.00;100397.56;5111842;28;20020;-74
2023/08/26 09:13:53;;;;;;;8.77;4.75;;;;;;;33.28;100.00;100406.00;5112152;28;20047;-72
2023/08/26 09:16:37;;;;;;;8.07;4.57;;;;;;;33.89;100.00;100447.97;5110693;28;20500;-74
2023/08/26 09:19:07;;;;;;;6.93;4.60;;;;;;;33.22;100.00;100381.97;5112315;28;20027;-76
2023/08/26 09:21:33;;;;;;;8.15;4.78;;;;;;;33.84;100.00;100352.66;5112542;28;20228;-78
2023/08/26 09:24:00;;;;;;;5.20;4.30;;;;;;;34.09;100.00;100412.13;5111976;28;20020;-75
2023/08/26 09:26:26;;;;;;;7.65;5.07;;;;;;;33.81;100.00;100382.06;5111846;28;20068;-78
2023/08/26 09:28:52;;;;;;;8.75;4.82;;;;;;;33.67;100.00;100386.34;5111561;28;20039;-75
2023/08/26 09:31:18;;;;;;;7.80;4.50;;;;;;;33.66;100.00;100384.69;5095574;28;20027;-79
2023/08/26 09:33:50;;;;;;;7.72;4.90;;;;;;;33.54;100.00;100385.31;5094361;28;20108;-75
2023/08/26 09:36:17;;;;;;;7.47;4.60;;;;;;;34.70;100.00;100394.97;5126816;28;20027;-77
2023/08/26 09:38:50;;;;;;;8.48;5.13;;;;;;;34.33;100.00;100424.22;5131304;28;20482;-76
2023/08/26 09:41:23;;;;;;;6.32;4.40;;;;;;;35.03;100.00;100376.78;5126817;28;20035;-71
2023/08/26 09:43:49;;;;;;;8.57;5.10;;;;;;;35.03;100.00;100379.44;5131046;28;20139;-75
2023/08/26 09:46:19;;;;;;;7.07;5.00;;;;;;;34.94;100.00;100315.28;5131836;28;20055;-76
2023/08/26 09:48:45;;;;;;;5.82;5.07;;;;;;;34.80;100.00;100379.63;5134406;27;20051;-74
2023/08/26 09:51:11;;;;;;;6.25;4.65;;;;;;;34.94;100.00;100363.66;5133844;27;20035;-75
2023/08/26 09:53:37;;;;;;;12.75;5.35;;;;;;;35.18;100.00;100373.03;5131781;28;20031;-72
2023/08/26 09:56:03;;;;;;;10.82;5.03;;;;;;;34.74;100.00;100372.44;5117302;28;20028;-73
2023/08/26 09:58:29;;;;;;;7.65;5.35;;;;;;;34.77;100.00;100305.97;5130672;28;20043;-76
2023/08/26 10:00:54;;;;;;;7.65;5.63;;;;;;;34.22;100.00;100340.16;5131918;27;20516;-77
2023/08/26 10:03:24;;;;;;;8.70;4.90;;;;;;;35.14;100.00;100350.63;5130798;27;20035;-73
2023/08/26 10:05:56;;;;;;;7.00;5.00;;;;;;;35.48;100.00;100353.34;5112423;28;20028;-72
2023/08/26 10:08:29;;;;;;;9.73;5.25;;;;;;;34.78;100.00;100379.00;5130346;27;20031;-71
2023/08/26 10:10:55;;;;;;;6.65;5.72;;;;;;;34.38;100.00;100382.19;5131333;28;20031;-71
2023/08/26 10:13:27;;;;;;;6.18;5.57;;;;;;;35.45;100.00;100344.97;5112350;28;20031;-72
2023/08/26 10:15:55;;;;;;;6.82;5.40;;;;;;;35.23;100.00;100311.63;5133639;27;20026;-73
2023/08/26 10:18:36;;;;;;;7.80;5.93;;;;;;;34.93;100.00;100385.00;5134613;27;20038;-72
2023/08/26 10:21:03;;;;;;;6.32;5.53;;;;;;;34.91;100.00;100329.69;5134842;27;20532;-73
2023/08/26 10:23:29;;;;;;;6.55;5.70;;;;;;;34.75;100.00;100327.31;5116498;27;20033;-73
2023/08/26 10:25:56;;;;;;;10.48;5.90;;;;;;;35.09;100.00;100373.38;5134931;27;20042;-72
2023/08/26 10:28:24;;;;;;;7.28;5.55;;;;;;;34.63;100.00;100346.50;5134554;27;20120;-71
2023/08/26 10:30:50;;;;;;;9.43;5.82;;;;;;;35.57;100.00;100354.00;5134825;27;20027;-71
2023/08/26 10:33:18;;;;;;;7.05;5.57;;;;;;;34.46;100.00;100293.06;5133099;27;20047;-72
2023/08/26 10:35:57;;;;;;;6.57;5.22;;;;;;;35.41;100.00;100364.88;5124271;27;20031;-71
2023/08/26 10:38:22;;;;;;;8.55;5.80;;;;;;;35.40;100.00;100286.50;5134685;27;20027;-70
2023/08/26 10:40:48;;;;;;;7.60;5.65;;;;;;;35.99;100.00;100289.47;5133565;27;20406;-73
2023/08/26 10:43:13;;;;;;;12.06;5.14;;;;;;;35.07;100.00;100309.28;4422981;27;10021536;-72
2023/08/26 10:45:50;;;;;;;8.90;5.90;;;;;;;35.30;100.00;100312.50;5129844;27;20023;-73
2023/08/26 10:48:16;;;;;;;6.75;5.82;;;;;;;35.41;100.00;100320.72;5131197;27;20852;-73
2023/08/26 10:50:46;;;;;;;6.10;5.50;;;;;;;35.96;100.00;100326.94;5131016;27;20046;-73
2023/08/26 10:53:13;;;;;;;7.05;5.93;;;;;;;35.35;100.00;100296.84;5112923;27;20433;-73
2023/08/26 10:55:39;;;;;;;7.57;5.70;;;;;;;36.07;100.00;100323.72;5130753;27;20031;-75
2023/08/26 10:58:17;;;;;;;6.18;5.22;;;;;;;36.32;100.00;100320.31;5131107;27;20027;-74
2023/08/26 11:00:45;;;;;;;7.00;5.60;;;;;;;35.43;100.00;100305.47;5130852;27;20031;-72
2023/08/26 11:03:12;;;;;;;7.90;5.45;;;;;;;36.03;100.00;100315.38;5130889;27;20054;-72
2023/08/26 11:05:42;;;;;;;6.75;5.53;;;;;;;36.12;100.00;100316.81;5131026;27;20035;-71
2023/08/26 11:08:07;;;;;;;8.85;5.93;;;;;;;36.41;100.00;100308.53;5129889;27;20123;-73
2023/08/26 11:10:35;;;;;;;8.52;6.50;;;;;;;35.67;100.00;100323.53;5131067;27;20180;-72